createdAt,value
2022-09-21T00:01:20.781Z,16.75
2022-09-21T00:03:48.242Z,12.40
2022-09-21T00:06:17.840Z,16.38
2022-09-21T00:08:45.937Z,14.07
2022-09-21T00:11:17.219Z,14.05
2022-09-21T00:13:45.942Z,17.25
2022-09-21T00:16:13.261Z,23.25
2022-09-21T00:18:40.146Z,11.27
2022-09-21T00:21:11.589Z,12.77
2022-09-21T00:23:39.258Z,15.73
2022-09-21T00:26:17.636Z,12.57
2022-09-21T00:28:46.208Z,18.85
2022-09-21T00:31:15.524Z,13.90
2022-09-21T00:33:46.369Z,16.52
2022-09-21T00:36:16.828Z,19.70
2022-09-21T00:38:44.205Z,13.77
2022-09-21T00:41:12.204Z,17.45
2022-09-21T00:43:46.144Z,20.50
2022-09-21T00:46:30.157Z,16.55
2022-09-21T00:48:58.027Z,22.20
2022-09-21T00:51:25.901Z,20.63
2022-09-21T00:53:56.417Z,18.17
2022-09-21T00:56:23.499Z,26.50
2022-09-21T00:58:51.654Z,35.08
2022-09-21T01:01:18.875Z,28.92
2022-09-21T01:03:49.885Z,32.70
2022-09-21T01:06:19.571Z,32.15
2022-09-21T01:08:52.840Z,36.58
2022-09-21T01:11:38.347Z,32.75
2022-09-21T01:14:23.801Z,29.55
2022-09-21T01:16:50.596Z,42.45
2022-09-21T01:19:22.992Z,43.97
2022-09-21T01:22:13.035Z,38.22
2022-09-21T01:24:51.378Z,33.78
2022-09-21T01:27:46.551Z,32.53
2022-09-21T01:30:18.410Z,30.85
2022-09-21T01:33:07.743Z,27.02
2022-09-21T01:35:39.429Z,38.45
2022-09-21T01:38:10.435Z,35.58
2022-09-21T01:40:41.461Z,47.88
2022-09-21T01:43:11.447Z,29.67
2022-09-21T01:45:41.473Z,33.28
2022-09-21T01:48:08.872Z,20.60
2022-09-21T01:50:39.047Z,47.42
2022-09-21T01:53:13.851Z,31.13
2022-09-21T01:55:44.947Z,30.05
2022-09-21T01:58:34.429Z,34.33
2022-09-21T02:01:01.545Z,44.78
2022-09-21T02:03:37.601Z,36.47
2022-09-21T02:06:06.513Z,25.08
2022-09-21T02:08:33.835Z,28.45
2022-09-21T02:11:04.193Z,42.28
2022-09-21T02:13:34.354Z,53.00
2022-09-21T02:16:07.081Z,32.92
2022-09-21T02:18:33.951Z,37.50
2022-09-21T02:21:03.914Z,19.60
2022-09-21T02:23:43.800Z,53.95
2022-09-21T02:26:20.405Z,47.65
2022-09-21T02:29:11.930Z,20.73
2022-09-21T02:31:56.112Z,41.53
2022-09-21T02:34:49.582Z,56.08
2022-09-21T02:40:04.256Z,23.83
2022-09-21T02:42:34.581Z,37.53
2022-09-21T02:45:09.122Z,31.08
2022-09-21T02:47:49.729Z,39.90
2022-09-21T02:50:25.199Z,28.17
2022-09-21T02:52:53.229Z,24.05
2022-09-21T02:55:20.222Z,19.20
2022-09-21T02:57:48.435Z,28.45
2022-09-21T03:00:16.252Z,20.08
2022-09-21T03:02:45.173Z,18.42
2022-09-21T03:05:13.736Z,17.50
2022-09-21T03:07:40.704Z,16.85
2022-09-21T03:10:09.372Z,23.30
2022-09-21T03:12:36.839Z,35.88
2022-09-21T03:15:04.841Z,22.55
2022-09-21T03:17:31.736Z,38.20
2022-09-21T03:19:58.619Z,20.83
2022-09-21T03:22:25.636Z,30.73
2022-09-21T03:24:57.593Z,23.13
2022-09-21T03:27:24.678Z,19.48
2022-09-21T03:29:51.634Z,32.78
2022-09-21T03:32:18.682Z,37.22
2022-09-21T03:34:45.514Z,42.90
2022-09-21T03:37:12.475Z,34.17
2022-09-21T03:39:39.510Z,20.20
2022-09-21T03:42:06.480Z,27.73
2022-09-21T03:44:33.284Z,35.30
2022-09-21T03:47:00.315Z,25.48
2022-09-21T03:49:27.189Z,14.15
2022-09-21T03:51:55.256Z,24.05
2022-09-21T03:54:22.096Z,22.92
2022-09-21T03:56:49.015Z,32.33
2022-09-21T03:59:15.982Z,23.40
2022-09-21T04:01:43.507Z,18.30
2022-09-21T04:04:10.863Z,15.32
2022-09-21T04:06:37.803Z,29.80
2022-09-21T04:09:04.904Z,25.58
2022-09-21T04:11:32.544Z,31.13
2022-09-21T04:13:59.913Z,24.17
2022-09-21T04:16:27.642Z,42.22
2022-09-21T04:18:55.224Z,53.00
2022-09-21T04:21:22.437Z,66.65
2022-09-21T04:23:50.280Z,57.22
2022-09-21T04:26:29.185Z,52.22
2022-09-21T04:28:56.835Z,45.22
2022-09-21T04:31:24.912Z,38.65
2022-09-21T04:33:53.237Z,44.17
2022-09-21T04:36:21.772Z,46.22
2022-09-21T04:38:49.175Z,48.65
2022-09-21T04:41:16.685Z,34.75
2022-09-21T04:43:45.167Z,39.05
2022-09-21T04:46:14.544Z,37.78
2022-09-21T04:48:42.068Z,37.47
2022-09-21T04:51:10.273Z,21.48
2022-09-21T04:53:40.490Z,24.13
2022-09-21T04:56:08.866Z,40.08
2022-09-21T04:58:36.005Z,72.63
2022-09-21T05:01:06.760Z,44.80
2022-09-21T05:03:33.874Z,49.03
2022-09-21T05:06:01.117Z,32.95
2022-09-21T05:08:46.911Z,42.03
2022-09-21T05:11:16.111Z,39.60
2022-09-21T05:13:46.489Z,95.47
2022-09-21T05:16:16.985Z,63.97
2022-09-21T05:18:44.876Z,64.63
2022-09-21T05:21:12.702Z,33.22
2022-09-21T05:23:40.910Z,71.72
2022-09-21T05:26:11.694Z,58.88
2022-09-21T05:28:40.283Z,60.83
2022-09-21T05:31:35.245Z,63.50
2022-09-21T05:34:19.576Z,53.38
2022-09-21T05:36:55.237Z,50.72
2022-09-21T05:39:22.430Z,39.53
2022-09-21T05:41:49.838Z,44.90
2022-09-21T05:44:17.127Z,45.90
2022-09-21T05:46:56.054Z,47.90
2022-09-21T05:49:43.079Z,65.07
2022-09-21T05:52:17.086Z,79.68
2022-09-21T05:54:56.719Z,36.00
2022-09-21T05:57:40.050Z,54.13
2022-09-21T06:03:27.006Z,32.17
2022-09-21T06:08:22.150Z,24.38
2022-09-21T06:10:51.598Z,31.63
2022-09-21T06:13:18.703Z,20.73
2022-09-21T06:15:45.570Z,23.40
2022-09-21T06:18:17.572Z,35.30
2022-09-21T06:20:47.850Z,30.00
2022-09-21T06:23:15.484Z,33.92
2022-09-21T06:25:42.399Z,57.38
2022-09-21T06:28:11.981Z,32.10
2022-09-21T06:30:40.961Z,23.30
2022-09-21T06:33:08.535Z,34.58
2022-09-21T06:35:36.453Z,29.85
2022-09-21T06:38:10.337Z,24.10
2022-09-21T06:40:37.799Z,37.65
2022-09-21T06:43:06.118Z,34.92
2022-09-21T06:45:33.416Z,17.10
2022-09-21T06:48:00.428Z,25.83
2022-09-21T06:50:27.498Z,23.85
2022-09-21T06:52:54.507Z,21.55
2022-09-21T06:55:21.379Z,11.95
2022-09-21T06:57:48.279Z,19.00
2022-09-21T07:00:15.430Z,25.92
2022-09-21T07:02:48.305Z,13.07
2022-09-21T07:05:15.117Z,20.63
2022-09-21T07:07:41.988Z,38.35
2022-09-21T07:10:14.563Z,14.50
2022-09-21T07:12:44.954Z,10.73
2022-09-21T07:15:12.029Z,14.93
2022-09-21T07:17:39.928Z,17.20
2022-09-21T07:20:08.270Z,14.50
2022-09-21T07:22:36.030Z,16.17
2022-09-21T07:25:04.205Z,16.58
2022-09-21T07:27:32.240Z,10.15
2022-09-21T07:29:59.224Z,10.60
2022-09-21T07:32:26.230Z,12.60
2022-09-21T07:34:56.452Z,13.32
2022-09-21T07:37:27.004Z,14.73
2022-09-21T07:39:54.317Z,12.85
2022-09-21T07:42:22.896Z,15.38
2022-09-21T07:44:50.936Z,16.23
2022-09-21T07:47:18.239Z,15.05
2022-09-21T07:49:47.030Z,16.50
2022-09-21T07:52:17.991Z,17.42
2022-09-21T07:54:45.305Z,16.30
2022-09-21T07:57:30.919Z,18.95
2022-09-21T08:00:47.401Z,14.70
2022-09-21T08:03:14.332Z,13.23
2022-09-21T08:05:41.417Z,16.52
2022-09-21T08:08:09.075Z,13.52
2022-09-21T08:10:39.547Z,15.27
2022-09-21T08:13:06.442Z,12.98
2022-09-21T08:15:49.263Z,10.32
2022-09-21T08:18:16.852Z,9.57
2022-09-21T08:20:44.128Z,13.98
2022-09-21T08:23:11.921Z,15.82
2022-09-21T08:25:38.781Z,14.35
2022-09-21T08:28:09.642Z,14.70
2022-09-21T08:30:36.952Z,13.43
2022-09-21T08:33:03.903Z,12.27
2022-09-21T08:35:30.751Z,15.23
2022-09-21T08:37:57.580Z,12.50
2022-09-21T08:40:24.547Z,15.45
2022-09-21T08:43:11.481Z,20.40
2022-09-21T08:45:42.500Z,12.20
2022-09-21T08:48:25.237Z,11.50
2022-09-21T08:50:56.739Z,10.57
2022-09-21T08:53:35.108Z,10.73
2022-09-21T08:56:03.058Z,16.17
2022-09-21T08:58:31.332Z,15.05
2022-09-21T09:01:07.316Z,11.35
2022-09-21T09:04:11.739Z,11.57
2022-09-21T09:06:41.774Z,14.60
2022-09-21T09:09:43.645Z,16.02
2022-09-21T09:12:33.466Z,10.52
2022-09-21T09:15:31.071Z,13.80
2022-09-21T09:18:12.589Z,14.80
2022-09-21T09:21:00.392Z,12.45
2022-09-21T09:23:31.483Z,13.63
2022-09-21T09:26:33.416Z,10.32
2022-09-21T09:29:09.357Z,15.38
2022-09-21T09:31:37.810Z,8.55
2022-09-21T09:34:10.545Z,13.80
2022-09-21T09:36:57.977Z,12.30
2022-09-21T09:39:26.933Z,13.50
2022-09-21T09:42:30.953Z,10.43
2022-09-21T09:45:03.619Z,8.60
2022-09-21T09:47:59.140Z,10.85
2022-09-21T09:50:38.425Z,9.50
2022-09-21T09:53:12.261Z,7.80
2022-09-21T09:55:45.220Z,5.53
2022-09-21T10:00:59.123Z,6.78
2022-09-21T10:03:29.298Z,3.90
2022-09-21T10:05:56.692Z,10.35
2022-09-21T10:08:42.040Z,7.80
2022-09-21T10:11:10.651Z,5.78
2022-09-21T10:13:40.022Z,8.50
2022-09-21T10:16:22.205Z,8.30
2022-09-21T10:19:01.620Z,6.68
2022-09-21T10:21:36.146Z,4.93
2022-09-21T10:24:04.751Z,5.47
2022-09-21T10:26:42.836Z,7.75
2022-09-21T10:29:25.535Z,4.82
2022-09-21T10:31:59.878Z,5.32
2022-09-21T10:34:31.491Z,5.03
2022-09-21T10:37:05.840Z,6.05
2022-09-21T10:39:36.785Z,6.85
2022-09-21T10:42:12.373Z,3.95
2022-09-21T10:44:41.810Z,5.55
2022-09-21T10:47:24.303Z,8.23
2022-09-21T10:49:59.052Z,6.25
2022-09-21T10:52:35.788Z,4.10
2022-09-21T10:55:17.123Z,4.28
2022-09-21T11:01:41.883Z,6.47
2022-09-21T11:07:56.113Z,4.68
2022-09-21T11:10:59.287Z,5.80
2022-09-21T11:13:35.487Z,4.03
2022-09-21T11:16:35.579Z,3.15
2022-09-21T11:19:32.185Z,5.50
2022-09-21T11:22:15.694Z,4.57
2022-09-21T11:24:45.755Z,2.67
2022-09-21T11:27:32.420Z,4.35
2022-09-21T11:30:10.921Z,6.78
2022-09-21T11:32:43.820Z,5.50
2022-09-21T11:35:26.976Z,7.40
2022-09-21T11:41:25.250Z,8.05
2022-09-21T11:44:24.567Z,5.05
2022-09-21T11:47:13.155Z,2.88
2022-09-21T11:50:26.316Z,7.25
2022-09-21T11:53:16.520Z,6.15
2022-09-21T11:55:57.906Z,4.00
2022-09-21T11:58:39.981Z,10.57
2022-09-21T12:01:18.959Z,3.38
2022-09-21T12:04:30.565Z,4.65
2022-09-21T12:07:37.824Z,5.03
2022-09-21T12:10:44.789Z,8.18
2022-09-21T12:13:54.255Z,2.35
2022-09-21T12:16:50.712Z,3.20
2022-09-21T12:20:10.612Z,3.30
2022-09-21T12:26:08.833Z,5.22
2022-09-21T12:28:47.162Z,5.93
2022-09-21T12:32:07.360Z,4.85
2022-09-21T12:34:54.201Z,3.88
2022-09-21T12:37:57.846Z,5.53
2022-09-21T12:44:29.300Z,4.65
2022-09-21T12:47:40.169Z,3.73
2022-09-21T12:50:23.177Z,6.43
2022-09-21T12:52:51.914Z,4.55
2022-09-21T12:55:34.103Z,8.45
2022-09-21T12:58:19.456Z,5.53
2022-09-21T13:00:55.334Z,5.55
2022-09-21T13:03:38.092Z,13.45
2022-09-21T13:06:25.250Z,13.48
2022-09-21T13:08:52.596Z,6.65
2022-09-21T13:15:28.560Z,3.60
2022-09-21T13:18:32.520Z,8.35
2022-09-21T13:21:22.142Z,3.90
2022-09-21T13:24:28.249Z,21.73
2022-09-21T13:27:00.869Z,6.13
2022-09-21T13:29:36.809Z,8.85
2022-09-21T13:33:23.504Z,5.30
2022-09-21T13:36:05.065Z,8.27
2022-09-21T13:38:37.774Z,3.33
2022-09-21T13:44:48.675Z,6.80
2022-09-21T13:47:41.143Z,8.48
2022-09-21T13:59:27.494Z,3.67
2022-09-21T14:01:55.434Z,5.55
2022-09-21T14:04:28.546Z,7.72
2022-09-21T14:09:34.853Z,3.03
2022-09-21T14:12:06.462Z,7.32
2022-09-21T14:14:37.352Z,3.80
2022-09-21T14:17:06.829Z,7.80
2022-09-21T14:19:33.613Z,4.75
2022-09-21T14:22:06.475Z,8.48
2022-09-21T14:24:43.020Z,5.25
2022-09-21T14:27:17.671Z,7.20
2022-09-21T14:29:56.305Z,6.70
2022-09-21T14:32:25.702Z,5.75
2022-09-21T14:34:57.265Z,7.40
2022-09-21T14:37:33.363Z,5.57
2022-09-21T14:40:08.440Z,7.00
2022-09-21T14:42:39.771Z,7.32
2022-09-21T14:45:15.374Z,9.77
2022-09-21T14:47:53.819Z,9.70
2022-09-21T14:50:30.854Z,8.32
2022-09-21T14:53:28.272Z,6.38
2022-09-21T14:56:30.340Z,3.58
2022-09-21T14:58:57.196Z,7.80
2022-09-21T15:01:36.056Z,10.85
2022-09-21T15:04:18.179Z,6.55
2022-09-21T15:07:08.855Z,2.80
2022-09-21T15:10:12.401Z,5.72
2022-09-21T15:13:06.616Z,8.98
2022-09-21T15:15:58.359Z,5.38
2022-09-21T15:18:25.884Z,9.02
2022-09-21T15:21:01.855Z,10.70
2022-09-21T15:23:32.567Z,6.60
2022-09-21T15:26:04.699Z,3.97
2022-09-21T15:28:57.868Z,12.07
2022-09-21T15:31:24.382Z,6.28
2022-09-21T15:33:53.243Z,7.80
2022-09-21T15:36:24.959Z,5.30
2022-09-21T15:38:52.961Z,5.32
2022-09-21T15:41:35.004Z,7.05
2022-09-21T15:44:24.632Z,6.10
2022-09-21T15:46:55.788Z,4.88
2022-09-21T15:49:22.849Z,6.68
2022-09-21T15:52:14.337Z,8.40
2022-09-21T15:54:46.657Z,5.38
2022-09-21T15:57:46.236Z,4.63
2022-09-21T16:00:15.923Z,6.75
2022-09-21T16:02:57.186Z,5.70
2022-09-21T16:05:25.741Z,8.15
2022-09-21T16:08:05.671Z,7.72
2022-09-21T16:10:39.001Z,7.93
2022-09-21T16:13:33.052Z,6.10
2022-09-21T16:16:08.382Z,7.97
2022-09-21T16:18:47.500Z,8.68
2022-09-21T16:21:27.931Z,7.18
2022-09-21T16:23:59.269Z,7.45
2022-09-21T16:26:31.669Z,9.88
2022-09-21T16:29:26.594Z,13.15
2022-09-21T16:32:19.067Z,5.57
2022-09-21T16:34:48.347Z,9.02
2022-09-21T16:37:24.461Z,7.10
2022-09-21T16:40:00.880Z,9.05
2022-09-21T16:42:32.823Z,8.52
2022-09-21T16:45:00.050Z,7.25
2022-09-21T16:47:28.128Z,8.20
2022-09-21T16:50:02.677Z,7.13
2022-09-21T16:52:30.687Z,8.07
2022-09-21T16:54:58.951Z,7.97
2022-09-21T16:57:26.682Z,7.75
2022-09-21T16:59:53.577Z,7.57
2022-09-21T17:02:21.245Z,7.32
2022-09-21T17:04:48.289Z,8.00
2022-09-21T17:07:16.984Z,13.88
2022-09-21T17:09:47.680Z,5.88
2022-09-21T17:12:17.644Z,5.65
2022-09-21T17:14:47.073Z,9.98
2022-09-21T17:17:18.655Z,8.98
2022-09-21T17:19:49.968Z,11.60
2022-09-21T17:22:18.195Z,9.23
2022-09-21T17:24:54.989Z,9.98
2022-09-21T17:27:25.376Z,9.68
2022-09-21T17:29:54.114Z,9.75
2022-09-21T17:32:23.067Z,6.30
2022-09-21T17:35:30.427Z,11.00
2022-09-21T17:37:57.926Z,5.90
2022-09-21T17:40:25.376Z,9.15
2022-09-21T17:42:54.439Z,8.55
2022-09-21T17:45:27.634Z,7.97
2022-09-21T17:47:54.771Z,10.48
2022-09-21T17:50:24.031Z,6.43
2022-09-21T17:53:09.471Z,10.73
2022-09-21T17:55:37.694Z,8.30
2022-09-21T17:58:28.918Z,11.48
2022-09-21T18:00:57.116Z,5.88
2022-09-21T18:03:30.178Z,8.40
2022-09-21T18:08:31.315Z,6.03
2022-09-21T18:11:06.570Z,6.93
2022-09-21T18:13:41.348Z,6.90
2022-09-21T18:16:27.137Z,6.90
2022-09-21T18:19:15.092Z,7.53
2022-09-21T18:21:44.295Z,8.55
2022-09-21T18:24:30.837Z,7.90
2022-09-21T18:26:59.313Z,5.90
2022-09-21T18:29:41.991Z,6.95
2022-09-21T18:32:46.458Z,2.40
2022-09-21T18:35:43.893Z,8.38
2022-09-21T18:38:21.257Z,9.38
2022-09-21T18:41:06.915Z,2.58
2022-09-21T18:44:00.619Z,5.45
2022-09-21T18:46:39.779Z,10.73
2022-09-21T18:49:40.923Z,9.32
2022-09-21T18:52:29.691Z,7.15
2022-09-21T18:54:56.661Z,8.15
2022-09-21T18:57:24.156Z,4.18
2022-09-21T18:59:51.465Z,5.13
2022-09-21T19:02:20.394Z,3.83
2022-09-21T19:04:49.311Z,11.93
2022-09-21T19:07:26.331Z,4.47
2022-09-21T19:10:10.889Z,5.55
2022-09-21T19:12:43.771Z,5.80
2022-09-21T19:15:59.325Z,9.65
2022-09-21T19:18:27.394Z,10.32
2022-09-21T19:21:13.518Z,8.48
2022-09-21T19:24:16.384Z,6.13
2022-09-21T19:26:52.314Z,9.15
2022-09-21T19:29:35.353Z,4.95
2022-09-21T19:32:02.331Z,10.20
2022-09-21T19:34:29.699Z,9.45
2022-09-21T19:36:57.398Z,5.70
2022-09-21T19:39:24.820Z,6.32
2022-09-21T19:41:54.701Z,6.80
2022-09-21T19:44:29.783Z,8.82
2022-09-21T19:47:16.832Z,11.27
2022-09-21T19:49:55.030Z,12.18
2022-09-21T19:52:32.840Z,10.55
2022-09-21T19:55:18.486Z,12.43
2022-09-21T19:58:04.627Z,8.98
2022-09-21T20:00:32.454Z,9.82
2022-09-21T20:03:13.845Z,12.30
2022-09-21T20:05:49.227Z,11.80
2022-09-21T20:08:57.153Z,7.90
2022-09-21T20:11:37.658Z,20.35
2022-09-21T20:14:41.399Z,25.67
2022-09-21T20:17:14.258Z,8.95
2022-09-21T20:20:19.239Z,11.98
2022-09-21T20:22:46.236Z,8.13
2022-09-21T20:25:30.043Z,19.10
2022-09-21T20:27:57.399Z,11.80
2022-09-21T20:30:26.761Z,11.13
2022-09-21T20:32:57.117Z,7.25
2022-09-21T20:35:26.691Z,6.25
2022-09-21T20:37:55.690Z,17.98
2022-09-21T20:40:28.868Z,7.53
2022-09-21T20:42:56.675Z,15.60
2022-09-21T20:45:23.727Z,8.75
2022-09-21T20:47:51.747Z,10.07
2022-09-21T20:50:19.225Z,11.30
2022-09-21T20:52:46.103Z,13.77
2022-09-21T20:55:17.209Z,9.95
2022-09-21T20:57:44.666Z,10.30
2022-09-21T21:00:16.111Z,9.35
2022-09-21T21:02:43.307Z,9.82
2022-09-21T21:05:11.264Z,11.18
2022-09-21T21:07:39.880Z,14.15
2022-09-21T21:10:07.203Z,11.68
2022-09-21T21:12:34.152Z,13.18
2022-09-21T21:15:00.982Z,14.35
2022-09-21T21:17:27.776Z,14.05
2022-09-21T21:19:54.669Z,12.45
2022-09-21T21:22:21.502Z,11.10
2022-09-21T21:24:48.631Z,7.57
2022-09-21T21:27:20.142Z,8.10
2022-09-21T21:29:51.634Z,16.02
2022-09-21T21:32:20.279Z,7.78
2022-09-21T21:34:49.587Z,10.68
2022-09-21T21:37:17.409Z,12.07
2022-09-21T21:39:44.670Z,11.23
2022-09-21T21:42:11.705Z,8.32
2022-09-21T21:44:38.840Z,10.00
2022-09-21T21:47:27.472Z,8.07
2022-09-21T21:49:52.914Z,5.20
2022-09-21T21:52:19.732Z,11.30
2022-09-21T21:54:46.623Z,11.32
2022-09-21T21:57:14.940Z,10.55
2022-09-21T21:59:43.247Z,10.88
2022-09-21T22:02:10.405Z,11.23
2022-09-21T22:04:37.541Z,7.95
2022-09-21T22:07:04.521Z,8.02
2022-09-21T22:09:31.349Z,14.20
2022-09-21T22:12:02.024Z,7.47
2022-09-21T22:14:29.025Z,10.38
2022-09-21T22:16:58.928Z,8.95
2022-09-21T22:19:26.023Z,15.77
2022-09-21T22:21:54.400Z,11.02
2022-09-21T22:24:21.747Z,7.60
2022-09-21T22:26:48.781Z,9.00
2022-09-21T22:29:17.932Z,14.30
2022-09-21T22:31:47.414Z,11.00
2022-09-21T22:34:14.981Z,12.25
2022-09-21T22:36:43.869Z,10.70
2022-09-21T22:39:11.044Z,10.85
2022-09-21T22:41:40.010Z,10.82
2022-09-21T22:44:07.247Z,14.60
2022-09-21T22:46:34.562Z,11.90
2022-09-21T22:49:01.707Z,15.30
2022-09-21T22:51:29.284Z,11.18
2022-09-21T22:53:56.794Z,11.05
2022-09-21T22:56:28.983Z,12.05
2022-09-21T22:58:58.418Z,16.70
2022-09-21T23:01:29.474Z,12.32
2022-09-21T23:03:58.723Z,11.63
2022-09-21T23:06:32.590Z,10.70
2022-09-21T23:09:00.678Z,9.80
2022-09-21T23:11:30.467Z,16.55
2022-09-21T23:13:58.360Z,13.63
2022-09-21T23:16:26.526Z,12.68
2022-09-21T23:18:53.993Z,8.60
2022-09-21T23:21:25.918Z,17.02
2022-09-21T23:23:59.971Z,10.27
2022-09-21T23:26:28.443Z,17.08
2022-09-21T23:29:00.696Z,9.73
2022-09-21T23:31:28.512Z,13.63
2022-09-21T23:33:58.230Z,9.93
2022-09-21T23:36:28.295Z,10.55
2022-09-21T23:38:55.429Z,7.18
2022-09-21T23:41:23.431Z,11.45
2022-09-21T23:43:50.767Z,14.93
2022-09-21T23:46:20.483Z,11.43
2022-09-21T23:48:47.457Z,12.35
2022-09-21T23:51:14.309Z,13.40
2022-09-21T23:53:41.440Z,11.40
2022-09-21T23:56:09.577Z,12.10
2022-09-21T23:58:36.498Z,11.85
